Hlavní strana
METAR-TAF:

METAR-TAF

Letiště :

Letiště Tunošna

Jaroslavl, Rusko

zeměpisná šířka: 57-33-38N, zeměpisná délka: 040-09-27E, výška: 87 m

Aktuální stav počasí

Zpráva byla vytvořena před 12 minutami, v 16:30 UTC
Jihojihozápadní vítr 4 kt
Teplota -19°C
Vlhkost vzduchu 84%
Tlak 1017 hPa
Viditelnost: 9000 m
Zataženo ve výšce 1100 ft
slabé sněžení

METAR: UUDL 181630Z 21002MPS 9000 -SN OVC011 M19/M21 Q1017 R23/850340 NOSIG RMK QFE755

Čas: 19:42 (16:42 UTC)

Předpověď počasí

Zpráva byla vytvořena před 2 hodinami a 42 minutami, v 14:00 UTC
Předpověď platná od 18 v 15 UTC do 19 v 15 UTC
Jihojihozápadní vítr 6 kt
Viditelnost: 8000 m
Oblačno až skoro zataženo ve výšce 4000 ft
slabé sněžení
Dočasný
od 18 v 18 UTC do 19 v 09 UTC
Polojasno ve výšce 400 ft

TAF: UUDL 181400Z 1815/1915 20003MPS 8000 -SN BKN040 TXM17/1912Z TNM21/1904Z TEMPO 1818/1909 SCT004

Stav a předpovědi počasí z více než 4 000 letišť (zprávy METAR a TAF).

Červené a žluté tečky na mapě představují dostupné meteorologické stanice.

Když kurzor umístíte na tečku, zobrazí se název stanice.

Pak kliknutím zobrazíte stav a předpověď počasí.

Chcete-li změnit mapu, kliknutím na zelené tlačítko se znaménkem +mapu přiblížíte, kliknutím na zelené tlačítko se znaménkem – mapu oddálíte a kliknutím na zelené šipky přejdete na sousední mapy.


METAR-TAF: